createdAt,value
2023-01-20T00:01:39.233Z,94.44
2023-01-20T00:04:07.749Z,97.01
2023-01-20T00:06:36.126Z,96.75
2023-01-20T00:09:05.791Z,94.62
2023-01-20T00:11:34.297Z,95.66
2023-01-20T00:14:04.023Z,94.50
2023-01-20T00:16:32.530Z,95.19
2023-01-20T00:19:00.552Z,95.07
2023-01-20T00:21:28.810Z,93.36
2023-01-20T00:23:57.002Z,96.70
2023-01-20T00:26:26.114Z,94.19
2023-01-20T00:28:56.085Z,95.21
2023-01-20T00:31:26.668Z,94.09
2023-01-20T00:33:57.000Z,93.50
2023-01-20T00:36:25.980Z,94.64
2023-01-20T00:38:53.871Z,97.37
2023-01-20T00:41:21.625Z,95.44
2023-01-20T00:43:49.359Z,94.67
2023-01-20T00:46:17.479Z,93.25
2023-01-20T00:48:46.661Z,95.69
2023-01-20T00:51:14.629Z,95.28
2023-01-20T00:53:42.442Z,96.91
2023-01-20T00:56:10.220Z,97.36
2023-01-20T00:58:37.980Z,97.71
2023-01-20T01:01:06.144Z,97.80
2023-01-20T01:03:33.937Z,98.92
2023-01-20T01:06:10.961Z,98.62
2023-01-20T01:08:39.062Z,100.00
2023-01-20T01:11:07.513Z,98.60
2023-01-20T01:13:36.009Z,99.05
2023-01-20T01:16:04.232Z,97.84
2023-01-20T01:18:32.063Z,97.62
2023-01-20T01:20:59.828Z,96.13
2023-01-20T01:23:28.962Z,95.31
2023-01-20T01:25:57.236Z,96.11
2023-01-20T01:28:25.016Z,95.34
2023-01-20T01:30:52.793Z,95.60
2023-01-20T01:33:20.600Z,97.25
2023-01-20T01:35:56.108Z,98.39
2023-01-20T01:38:24.161Z,98.49
2023-01-20T01:40:54.789Z,98.91
2023-01-20T01:43:25.120Z,99.75
2023-01-20T01:45:52.991Z,96.99
2023-01-20T01:48:24.048Z,95.78
2023-01-20T01:50:55.637Z,96.42
2023-01-20T01:53:23.873Z,97.48
2023-01-20T01:55:57.476Z,96.79
2023-01-20T01:58:27.584Z,97.63
2023-01-20T02:00:55.349Z,95.44
2023-01-20T02:03:24.027Z,95.77
2023-01-20T02:05:54.028Z,97.58
2023-01-20T02:08:22.078Z,95.79
2023-01-20T02:10:49.829Z,97.70
2023-01-20T02:13:19.057Z,96.74
2023-01-20T02:15:55.422Z,98.43
2023-01-20T02:18:36.655Z,97.60
2023-01-20T02:21:42.362Z,98.06
2023-01-20T02:24:40.480Z,98.34
2023-01-20T02:27:13.207Z,96.56
2023-01-20T02:30:09.754Z,95.51
2023-01-20T02:32:48.608Z,95.60
2023-01-20T02:35:25.739Z,94.77
2023-01-20T02:38:01.269Z,93.79
2023-01-20T02:40:34.512Z,92.80
2023-01-20T02:43:10.859Z,93.94
2023-01-20T02:45:47.350Z,94.95
2023-01-20T02:48:23.524Z,93.86
2023-01-20T02:50:59.959Z,93.52
2023-01-20T02:53:33.807Z,92.54
2023-01-20T02:56:01.686Z,93.34
2023-01-20T02:58:38.060Z,94.15
2023-01-20T03:01:12.737Z,95.64
2023-01-20T03:03:47.377Z,94.05
2023-01-20T03:06:22.594Z,96.23
2023-01-20T03:08:53.569Z,97.12
2023-01-20T03:11:21.532Z,97.91
2023-01-20T03:13:54.978Z,96.97
2023-01-20T03:16:24.686Z,96.67
2023-01-20T03:18:53.858Z,96.25
2023-01-20T03:21:22.286Z,94.91
2023-01-20T03:23:52.513Z,93.14
2023-01-20T03:26:22.853Z,92.94
2023-01-20T03:29:07.819Z,93.92
2023-01-20T03:31:39.261Z,94.13
2023-01-20T03:34:12.661Z,94.50
2023-01-20T03:36:42.325Z,93.89
2023-01-20T03:39:10.342Z,94.10
2023-01-20T03:41:47.569Z,95.55
2023-01-20T03:44:24.474Z,95.73
2023-01-20T03:46:59.171Z,96.37
2023-01-20T03:49:34.994Z,97.21
2023-01-20T03:52:06.158Z,97.01
2023-01-20T03:54:43.961Z,97.57
2023-01-20T03:57:15.799Z,99.30
2023-01-20T03:59:46.937Z,99.71
2023-01-20T04:02:14.797Z,100.00
2023-01-20T04:04:46.021Z,100.00
2023-01-20T04:07:18.201Z,100.00
2023-01-20T04:09:51.242Z,99.52
2023-01-20T04:12:19.238Z,97.90
2023-01-20T04:14:46.977Z,97.29
2023-01-20T04:17:14.983Z,97.71
2023-01-20T04:19:44.137Z,97.22
2023-01-20T04:22:18.991Z,95.88
2023-01-20T04:24:53.432Z,96.33
2023-01-20T04:27:21.211Z,95.05
2023-01-20T04:29:48.969Z,93.91
2023-01-20T04:32:16.668Z,94.13
2023-01-20T04:34:45.760Z,95.19
2023-01-20T04:37:13.495Z,95.93
2023-01-20T04:39:41.297Z,99.44
2023-01-20T04:42:10.516Z,98.33
2023-01-20T04:44:38.323Z,99.16
2023-01-20T04:47:06.551Z,100.00
2023-01-20T04:49:35.436Z,100.00
2023-01-20T04:52:04.879Z,99.36
2023-01-20T04:54:32.787Z,99.69
2023-01-20T04:57:00.540Z,99.83
2023-01-20T04:59:28.297Z,100.00
2023-01-20T05:01:56.273Z,100.00
2023-01-20T05:04:24.026Z,100.00
2023-01-20T05:06:51.788Z,100.00
2023-01-20T05:09:20.951Z,100.00
2023-01-20T05:11:48.729Z,100.00
2023-01-20T05:14:16.435Z,99.79
2023-01-20T05:16:44.225Z,99.26
2023-01-20T05:19:12.720Z,97.55
2023-01-20T05:21:42.518Z,96.06
2023-01-20T05:24:10.709Z,95.03
2023-01-20T05:26:39.855Z,94.12
2023-01-20T05:29:07.659Z,94.79
2023-01-20T05:31:37.538Z,94.07
2023-01-20T05:34:06.009Z,93.94
2023-01-20T05:36:33.813Z,91.95
2023-01-20T05:39:01.606Z,93.16
2023-01-20T05:41:29.448Z,91.38
2023-01-20T05:43:58.567Z,92.27
2023-01-20T05:46:26.388Z,92.10
2023-01-20T05:48:54.091Z,92.50
2023-01-20T05:51:21.926Z,91.61
2023-01-20T05:53:49.662Z,92.30
2023-01-20T05:56:17.442Z,92.94
2023-01-20T05:58:45.131Z,92.59
2023-01-20T06:01:15.831Z,93.94
2023-01-20T06:03:44.198Z,95.22
2023-01-20T06:06:15.741Z,96.08
2023-01-20T06:08:43.861Z,94.74
2023-01-20T06:11:12.061Z,96.13
2023-01-20T06:13:40.327Z,97.23
2023-01-20T06:16:08.783Z,94.37
2023-01-20T06:18:37.954Z,91.28
2023-01-20T06:21:06.207Z,91.30
2023-01-20T06:23:34.063Z,91.23
2023-01-20T06:26:03.597Z,90.33
2023-01-20T06:28:32.950Z,93.78
2023-01-20T06:31:02.825Z,92.40
2023-01-20T06:33:30.801Z,92.66
2023-01-20T06:36:00.735Z,92.89
2023-01-20T06:38:30.999Z,91.75
2023-01-20T06:40:59.730Z,91.30
2023-01-20T06:43:29.673Z,91.79
2023-01-20T06:46:01.148Z,93.09
2023-01-20T06:48:29.837Z,91.54
2023-01-20T06:51:03.338Z,90.82
2023-01-20T06:53:30.963Z,91.48
2023-01-20T06:56:00.594Z,91.90
2023-01-20T06:58:30.269Z,92.40
2023-01-20T07:00:59.314Z,90.33
2023-01-20T07:03:27.178Z,92.00
2023-01-20T07:05:58.502Z,91.71
2023-01-20T07:08:27.767Z,89.47
2023-01-20T07:10:55.522Z,95.61
2023-01-20T07:13:23.342Z,96.83
2023-01-20T07:15:51.095Z,97.40
2023-01-20T07:18:18.909Z,94.88
2023-01-20T07:20:46.713Z,93.94
2023-01-20T07:23:14.861Z,92.12
2023-01-20T07:25:43.983Z,91.58
2023-01-20T07:28:11.679Z,92.26
2023-01-20T07:30:39.560Z,92.08
2023-01-20T07:33:07.286Z,91.80
2023-01-20T07:35:35.476Z,90.64
2023-01-20T07:38:04.465Z,92.35
2023-01-20T07:40:32.273Z,89.90
2023-01-20T07:43:04.723Z,91.96
2023-01-20T07:45:32.523Z,93.98
2023-01-20T07:48:01.838Z,92.39
2023-01-20T07:50:29.559Z,89.03
2023-01-20T07:52:57.340Z,92.79
2023-01-20T07:55:25.295Z,92.39
2023-01-20T07:57:53.072Z,90.86
2023-01-20T08:00:22.783Z,90.53
2023-01-20T08:02:50.549Z,91.13
2023-01-20T08:05:18.575Z,90.99
2023-01-20T08:07:46.369Z,90.62
2023-01-20T08:10:14.129Z,89.86
2023-01-20T08:12:41.965Z,92.44
2023-01-20T08:15:11.182Z,93.33
2023-01-20T08:17:40.348Z,95.09
2023-01-20T08:20:09.686Z,92.57
2023-01-20T08:22:37.551Z,91.76
2023-01-20T08:25:05.876Z,89.76
2023-01-20T08:27:33.693Z,88.38
2023-01-20T08:30:01.461Z,90.22
2023-01-20T08:32:30.631Z,90.85
2023-01-20T08:35:00.153Z,90.03
2023-01-20T08:37:28.001Z,88.70
2023-01-20T08:39:55.746Z,89.82
2023-01-20T08:42:23.438Z,91.56
2023-01-20T08:44:53.313Z,89.28
2023-01-20T08:47:21.146Z,89.77
2023-01-20T08:49:48.861Z,91.01
2023-01-20T08:52:18.002Z,91.62
2023-01-20T08:54:45.767Z,91.88
2023-01-20T08:57:14.963Z,89.86
2023-01-20T08:59:42.720Z,90.74
2023-01-20T09:02:11.171Z,90.89
2023-01-20T09:04:39.131Z,92.38
2023-01-20T09:07:07.766Z,91.68
2023-01-20T09:09:36.855Z,90.95
2023-01-20T09:12:05.397Z,90.99
2023-01-20T09:14:33.223Z,90.76
2023-01-20T09:17:02.676Z,89.62
2023-01-20T09:19:30.595Z,88.81
2023-01-20T09:21:58.615Z,88.40
2023-01-20T09:24:26.390Z,88.67
2023-01-20T09:26:56.838Z,89.06
2023-01-20T09:29:25.630Z,88.83
2023-01-20T09:31:58.213Z,89.05
2023-01-20T09:34:27.824Z,90.22
2023-01-20T09:36:57.906Z,92.60
2023-01-20T09:39:43.754Z,90.97
2023-01-20T09:42:48.048Z,90.23
2023-01-20T09:45:24.940Z,91.33
2023-01-20T09:48:02.230Z,91.60
2023-01-20T09:50:55.850Z,91.47
2023-01-20T09:53:40.406Z,91.34
2023-01-20T09:56:13.579Z,91.51
2023-01-20T09:58:49.677Z,90.56
2023-01-20T10:01:24.451Z,88.26
2023-01-20T10:04:00.504Z,87.00
2023-01-20T10:06:36.457Z,87.68
2023-01-20T10:09:07.646Z,88.19
2023-01-20T10:11:50.759Z,88.89
2023-01-20T10:14:26.171Z,87.78
2023-01-20T10:17:05.071Z,86.90
2023-01-20T10:19:42.645Z,88.08
2023-01-20T10:22:17.904Z,89.72
2023-01-20T10:24:55.439Z,88.54
2023-01-20T10:27:26.312Z,89.54
2023-01-20T10:30:00.165Z,90.13
2023-01-20T10:32:36.682Z,89.94
2023-01-20T10:35:15.616Z,88.91
2023-01-20T10:37:43.872Z,88.30
2023-01-20T10:40:20.666Z,87.82
2023-01-20T10:42:50.331Z,87.93
2023-01-20T10:45:24.366Z,87.42
2023-01-20T10:48:04.801Z,86.01
2023-01-20T10:50:46.945Z,86.85
2023-01-20T10:53:35.689Z,87.38
2023-01-20T10:56:14.132Z,88.68
2023-01-20T10:58:45.363Z,89.49
2023-01-20T11:01:19.012Z,91.02
2023-01-20T11:03:49.599Z,90.38
2023-01-20T11:06:21.431Z,89.94
2023-01-20T11:08:49.910Z,89.21
2023-01-20T11:11:21.902Z,89.31
2023-01-20T11:13:51.694Z,88.57
2023-01-20T11:16:25.006Z,95.81
2023-01-20T11:18:59.253Z,96.27
2023-01-20T11:21:29.210Z,92.30
2023-01-20T11:23:58.199Z,93.53
2023-01-20T11:26:28.777Z,91.29
2023-01-20T11:28:58.868Z,90.70
2023-01-20T11:31:39.526Z,89.10
2023-01-20T11:34:22.325Z,88.52
2023-01-20T11:36:50.590Z,88.38
2023-01-20T11:39:26.895Z,88.00
2023-01-20T11:42:13.149Z,87.08
2023-01-20T11:44:44.622Z,88.46
2023-01-20T11:47:36.298Z,88.13
2023-01-20T11:50:32.592Z,89.04
2023-01-20T11:53:14.264Z,87.76
2023-01-20T11:55:49.759Z,88.95
2023-01-20T11:58:19.507Z,88.27
2023-01-20T12:00:47.664Z,89.86
2023-01-20T12:03:35.751Z,90.59
2023-01-20T12:06:12.497Z,92.91
2023-01-20T12:08:48.361Z,90.63
2023-01-20T12:11:20.400Z,89.41
2023-01-20T12:14:34.423Z,88.66
2023-01-20T12:17:14.428Z,88.64
2023-01-20T12:19:56.697Z,88.18
2023-01-20T12:22:30.797Z,88.17
2023-01-20T12:25:10.731Z,87.63
2023-01-20T12:27:46.481Z,89.19
2023-01-20T12:30:28.689Z,88.76
2023-01-20T12:32:56.805Z,90.49
2023-01-20T12:35:30.116Z,89.69
2023-01-20T12:38:02.932Z,90.97
2023-01-20T12:40:40.701Z,88.65
2023-01-20T12:43:26.915Z,89.26
2023-01-20T12:46:21.493Z,90.06
2023-01-20T12:49:01.104Z,89.17
2023-01-20T12:51:43.894Z,89.68
2023-01-20T12:54:47.510Z,88.99
2023-01-20T12:57:24.367Z,88.34
2023-01-20T13:00:09.247Z,88.81
2023-01-20T13:03:16.151Z,88.80
2023-01-20T13:06:01.214Z,88.39
2023-01-20T13:08:42.181Z,89.56
2023-01-20T13:11:20.747Z,88.87
2023-01-20T13:14:01.895Z,88.77
2023-01-20T13:16:37.220Z,89.20
2023-01-20T13:19:14.686Z,87.28
2023-01-20T13:21:42.629Z,89.90
2023-01-20T13:24:19.536Z,87.60
2023-01-20T13:26:49.363Z,84.84
2023-01-20T13:29:41.227Z,86.57
2023-01-20T13:32:28.159Z,86.42
2023-01-20T13:34:56.838Z,86.83
2023-01-20T13:37:36.631Z,87.04
2023-01-20T13:40:39.562Z,85.99
2023-01-20T13:43:36.011Z,85.74
2023-01-20T13:46:37.341Z,85.52
2023-01-20T13:49:23.391Z,86.31
2023-01-20T13:51:51.412Z,87.60
2023-01-20T13:54:38.702Z,87.45
2023-01-20T13:57:35.999Z,86.79
2023-01-20T14:00:13.819Z,86.57
2023-01-20T14:02:41.569Z,87.04
2023-01-20T14:05:34.432Z,82.42
2023-01-20T14:08:03.490Z,82.84
2023-01-20T14:10:32.354Z,83.07
2023-01-20T14:13:01.549Z,86.03
2023-01-20T14:15:37.457Z,84.92
2023-01-20T14:18:05.968Z,85.35
2023-01-20T14:20:33.773Z,84.39
2023-01-20T14:23:35.965Z,84.15
2023-01-20T14:26:10.740Z,83.36
2023-01-20T14:28:46.185Z,80.07
2023-01-20T14:31:33.864Z,78.82
2023-01-20T14:34:04.971Z,78.98
2023-01-20T14:36:34.119Z,77.98
2023-01-20T14:39:04.375Z,77.67
2023-01-20T14:41:45.877Z,76.90
2023-01-20T14:44:19.797Z,77.85
2023-01-20T14:46:50.220Z,79.15
2023-01-20T14:49:20.399Z,75.95
2023-01-20T14:51:51.005Z,75.96
2023-01-20T14:54:36.536Z,77.39
2023-01-20T14:57:27.610Z,74.65
2023-01-20T15:00:20.456Z,74.48
2023-01-20T15:03:01.254Z,75.36
2023-01-20T15:05:39.424Z,77.70
2023-01-20T15:08:26.749Z,77.95
2023-01-20T15:11:31.230Z,76.51
2023-01-20T15:14:12.907Z,77.28
2023-01-20T15:16:50.264Z,74.19
2023-01-20T15:19:33.483Z,75.07
2023-01-20T15:22:23.007Z,75.71
2023-01-20T15:24:51.502Z,78.16
2023-01-20T15:27:28.787Z,78.46
2023-01-20T15:30:15.867Z,79.29
2023-01-20T15:32:45.173Z,79.95
2023-01-20T15:35:14.511Z,79.60
2023-01-20T15:37:43.118Z,79.57
2023-01-20T15:40:16.575Z,79.77
2023-01-20T15:42:44.278Z,77.79
2023-01-20T15:45:15.469Z,77.04
2023-01-20T15:47:45.877Z,76.34
2023-01-20T15:50:16.675Z,76.67
2023-01-20T15:52:44.810Z,77.68
2023-01-20T15:55:14.226Z,77.17
2023-01-20T15:57:42.451Z,77.22
2023-01-20T16:00:17.928Z,76.72
2023-01-20T16:02:47.301Z,76.70
2023-01-20T16:05:17.556Z,77.44
2023-01-20T16:07:47.775Z,76.97
2023-01-20T16:10:18.120Z,77.30
2023-01-20T16:12:46.806Z,78.20
2023-01-20T16:15:16.544Z,78.81
2023-01-20T16:17:44.675Z,78.28
2023-01-20T16:20:25.148Z,77.80
2023-01-20T16:22:53.127Z,78.35
2023-01-20T16:25:22.029Z,77.88
2023-01-20T16:27:49.974Z,78.02
2023-01-20T16:30:20.228Z,77.92
2023-01-20T16:32:48.788Z,78.23
2023-01-20T16:35:18.084Z,79.77
2023-01-20T16:37:48.805Z,79.83
2023-01-20T16:40:18.774Z,80.47
2023-01-20T16:42:47.237Z,80.50
2023-01-20T16:45:27.264Z,81.57
2023-01-20T16:47:55.799Z,81.71
2023-01-20T16:50:23.678Z,81.79
2023-01-20T16:52:52.762Z,81.57
2023-01-20T16:55:21.990Z,81.87
2023-01-20T16:57:49.792Z,82.02
2023-01-20T17:00:19.433Z,83.56
2023-01-20T17:02:51.260Z,84.91
2023-01-20T17:05:22.508Z,85.93
2023-01-20T17:07:50.645Z,86.62
2023-01-20T17:10:21.497Z,85.08
2023-01-20T17:12:49.382Z,85.97
2023-01-20T17:15:17.157Z,85.63
2023-01-20T17:17:48.342Z,85.12
2023-01-20T17:20:17.567Z,86.45
2023-01-20T17:22:45.698Z,86.74
2023-01-20T17:25:16.799Z,87.14
2023-01-20T17:27:46.787Z,88.49
2023-01-20T17:30:16.098Z,88.19
2023-01-20T17:32:48.026Z,87.99
2023-01-20T17:35:16.160Z,86.67
2023-01-20T17:37:44.245Z,86.10
2023-01-20T17:40:13.152Z,87.60
2023-01-20T17:42:40.930Z,88.31
2023-01-20T17:45:11.111Z,88.51
2023-01-20T17:47:38.912Z,89.23
2023-01-20T17:50:06.911Z,87.59
2023-01-20T17:52:34.681Z,87.27
2023-01-20T17:55:04.705Z,87.52
2023-01-20T17:57:32.624Z,87.47
2023-01-20T18:00:00.330Z,87.08
2023-01-20T18:02:29.439Z,89.18
2023-01-20T18:04:57.194Z,88.65
2023-01-20T18:07:24.992Z,88.36
2023-01-20T18:09:52.833Z,88.26
2023-01-20T18:12:21.405Z,88.61
2023-01-20T18:14:49.164Z,88.67
2023-01-20T18:17:17.011Z,89.90
2023-01-20T18:19:47.266Z,90.38
2023-01-20T18:22:15.131Z,90.16
2023-01-20T18:24:42.997Z,90.25
2023-01-20T18:27:10.711Z,90.12
2023-01-20T18:29:38.445Z,89.65
2023-01-20T18:32:06.623Z,90.05
2023-01-20T18:34:34.417Z,88.71
2023-01-20T18:37:03.592Z,89.74
2023-01-20T18:39:31.423Z,89.57
2023-01-20T18:41:59.288Z,89.14
2023-01-20T18:44:27.055Z,88.85
2023-01-20T18:46:54.800Z,88.89
2023-01-20T18:49:22.671Z,87.75
2023-01-20T18:51:50.421Z,87.84
2023-01-20T18:54:21.936Z,90.27
2023-01-20T18:56:49.819Z,89.26
2023-01-20T18:59:17.559Z,90.53
2023-01-20T19:01:46.283Z,91.66
2023-01-20T19:04:14.355Z,91.80
2023-01-20T19:06:43.487Z,90.36
2023-01-20T19:09:12.131Z,89.32
2023-01-20T19:11:42.628Z,89.89
2023-01-20T19:14:13.502Z,90.05
2023-01-20T19:16:45.076Z,90.75
2023-01-20T19:19:13.236Z,91.25
2023-01-20T19:21:40.946Z,92.10
2023-01-20T19:24:10.869Z,92.03
2023-01-20T19:26:40.818Z,91.77
2023-01-20T19:29:13.264Z,92.58
2023-01-20T19:31:42.516Z,90.21
2023-01-20T19:34:10.497Z,88.93
2023-01-20T19:36:38.615Z,90.18
2023-01-20T19:39:06.744Z,89.33
2023-01-20T19:41:36.073Z,91.90
2023-01-20T19:44:07.808Z,92.10
2023-01-20T19:46:38.789Z,92.03
2023-01-20T19:49:07.042Z,91.80
2023-01-20T19:51:34.850Z,90.07
2023-01-20T19:54:03.285Z,90.24
2023-01-20T19:56:32.997Z,92.33
2023-01-20T19:59:01.687Z,91.54
2023-01-20T20:01:32.271Z,91.22
2023-01-20T20:04:05.476Z,91.50
2023-01-20T20:06:34.783Z,91.22
2023-01-20T20:09:05.675Z,90.38
2023-01-20T20:11:34.395Z,90.51
2023-01-20T20:14:04.113Z,89.91
2023-01-20T20:16:35.551Z,91.25
2023-01-20T20:19:03.632Z,93.01
2023-01-20T20:21:31.535Z,92.73
2023-01-20T20:24:01.281Z,92.08
2023-01-20T20:26:31.891Z,91.12
2023-01-20T20:29:00.872Z,91.61
2023-01-20T20:31:29.935Z,92.14
2023-01-20T20:34:00.233Z,92.35
2023-01-20T20:36:30.844Z,91.82
2023-01-20T20:38:59.303Z,91.49
2023-01-20T20:41:30.517Z,90.94
2023-01-20T20:43:59.193Z,90.71
2023-01-20T20:46:27.460Z,92.53
2023-01-20T20:48:55.922Z,92.77
2023-01-20T20:51:25.200Z,92.45
2023-01-20T20:53:55.598Z,89.03
2023-01-20T20:56:24.454Z,90.00
2023-01-20T20:59:01.561Z,89.74
2023-01-20T21:01:31.569Z,89.82
2023-01-20T21:04:00.473Z,91.69
2023-01-20T21:06:30.580Z,92.15
2023-01-20T21:08:59.286Z,92.26
2023-01-20T21:11:27.605Z,93.05
2023-01-20T21:13:55.585Z,91.68
2023-01-20T21:16:24.155Z,91.12
2023-01-20T21:18:53.670Z,91.90
2023-01-20T21:21:21.828Z,90.84
2023-01-20T21:23:52.427Z,89.00
2023-01-20T21:26:20.795Z,88.80
2023-01-20T21:28:50.022Z,88.54
2023-01-20T21:31:20.836Z,89.44
2023-01-20T21:33:53.409Z,89.04
2023-01-20T21:36:22.093Z,90.10
2023-01-20T21:38:51.956Z,90.92
2023-01-20T21:41:20.187Z,91.11
2023-01-20T21:44:06.760Z,91.79
2023-01-20T21:46:38.454Z,91.43
2023-01-20T21:49:24.672Z,90.59
2023-01-20T21:52:10.005Z,90.39
2023-01-20T21:54:40.548Z,88.57
2023-01-20T21:57:08.541Z,87.58
2023-01-20T21:59:36.341Z,88.60
2023-01-20T22:02:04.135Z,90.10
2023-01-20T22:04:32.710Z,89.78
2023-01-20T22:07:00.551Z,90.18
2023-01-20T22:09:28.256Z,89.78
2023-01-20T22:11:57.452Z,89.33
2023-01-20T22:14:25.254Z,87.91
2023-01-20T22:16:53.039Z,88.29
2023-01-20T22:19:20.816Z,88.77
2023-01-20T22:21:48.611Z,89.67
2023-01-20T22:24:16.693Z,90.80
2023-01-20T22:26:48.083Z,88.99
2023-01-20T22:29:17.955Z,89.74
2023-01-20T22:31:46.709Z,90.18
2023-01-20T22:34:14.474Z,91.50
2023-01-20T22:36:42.245Z,91.08
2023-01-20T22:39:12.196Z,90.66
2023-01-20T22:41:40.014Z,91.43
2023-01-20T22:44:07.940Z,90.07
2023-01-20T22:46:37.117Z,91.29
2023-01-20T22:49:04.922Z,89.06
2023-01-20T22:51:33.264Z,89.79
2023-01-20T22:54:02.366Z,88.92
2023-01-20T22:56:32.157Z,89.32
2023-01-20T22:59:01.030Z,88.76
2023-01-20T23:01:30.884Z,90.36
2023-01-20T23:04:01.978Z,89.76
2023-01-20T23:06:33.744Z,89.92
2023-01-20T23:09:01.884Z,90.90
2023-01-20T23:11:29.887Z,94.54
2023-01-20T23:13:58.223Z,96.08
2023-01-20T23:16:26.087Z,97.19
2023-01-20T23:18:53.841Z,97.56
2023-01-20T23:21:24.338Z,95.12
2023-01-20T23:23:54.547Z,94.58
2023-01-20T23:26:24.663Z,94.82
2023-01-20T23:28:53.546Z,94.93
2023-01-20T23:31:22.374Z,92.65
2023-01-20T23:33:50.712Z,92.28
2023-01-20T23:36:21.577Z,92.46
2023-01-20T23:38:50.772Z,92.81
2023-01-20T23:41:18.554Z,92.04
2023-01-20T23:43:46.268Z,91.33
2023-01-20T23:46:14.191Z,90.94
2023-01-20T23:48:41.981Z,89.90
2023-01-20T23:51:10.623Z,93.40
2023-01-20T23:53:40.317Z,92.97
2023-01-20T23:56:13.500Z,93.49
2023-01-20T23:58:42.029Z,92.09
